createdAt,value
2022-12-19T00:01:17.072Z,-3.80
2022-12-19T00:03:46.618Z,-3.80
2022-12-19T00:06:16.179Z,-3.80
2022-12-19T00:08:46.067Z,-3.80
2022-12-19T00:11:16.496Z,-3.80
2022-12-19T00:13:47.225Z,-3.70
2022-12-19T00:16:17.696Z,-3.70
2022-12-19T00:18:48.568Z,-3.70
2022-12-19T00:21:20.802Z,-3.60
2022-12-19T00:23:50.455Z,-3.60
2022-12-19T00:26:19.327Z,-3.50
2022-12-19T00:28:50.776Z,-3.50
2022-12-19T00:31:21.142Z,-3.40
2022-12-19T00:33:49.815Z,-3.50
2022-12-19T00:36:22.853Z,-3.60
2022-12-19T00:38:52.723Z,-3.50
2022-12-19T00:41:23.001Z,-3.50
2022-12-19T00:43:55.665Z,-3.50
2022-12-19T00:46:30.400Z,-3.50
2022-12-19T00:48:59.312Z,-3.60
2022-12-19T00:51:29.494Z,-3.60
2022-12-19T00:53:59.234Z,-3.60
2022-12-19T00:56:29.655Z,-3.60
2022-12-19T00:59:00.078Z,-3.50
2022-12-19T01:01:31.014Z,-3.70
2022-12-19T01:06:49.433Z,-3.70
2022-12-19T01:09:18.324Z,-3.70
2022-12-19T01:12:04.506Z,-3.70
2022-12-19T01:14:34.347Z,-3.80
2022-12-19T01:17:04.860Z,-3.80
2022-12-19T01:19:33.271Z,-3.90
2022-12-19T01:22:01.679Z,-3.90
2022-12-19T01:24:30.793Z,-3.90
2022-12-19T01:26:59.286Z,-3.90
2022-12-19T01:29:28.510Z,-3.90
2022-12-19T01:31:58.453Z,-3.90
2022-12-19T01:34:26.909Z,-4.00
2022-12-19T01:36:55.364Z,-4.00
2022-12-19T01:39:24.237Z,-4.10
2022-12-19T01:41:55.262Z,-4.10
2022-12-19T01:44:25.973Z,-4.10
2022-12-19T01:46:58.075Z,-4.10
2022-12-19T01:49:32.728Z,-4.10
2022-12-19T01:52:04.342Z,-4.20
2022-12-19T01:54:36.992Z,-4.10
2022-12-19T01:57:09.897Z,-4.20
2022-12-19T01:59:42.092Z,-4.10
2022-12-19T02:02:14.576Z,-4.10
2022-12-19T02:04:45.344Z,-4.10
2022-12-19T02:07:16.477Z,-4.10
2022-12-19T02:09:46.869Z,-4.10
2022-12-19T02:12:15.852Z,-4.10
2022-12-19T02:14:44.795Z,-4.10
2022-12-19T02:17:21.087Z,-4.10
2022-12-19T02:20:26.314Z,-4.00
2022-12-19T02:23:22.832Z,-4.00
2022-12-19T02:26:08.222Z,-4.00
2022-12-19T02:29:00.461Z,-4.00
2022-12-19T02:31:32.505Z,-4.00
2022-12-19T02:34:08.549Z,-4.00
2022-12-19T02:36:43.520Z,-4.00
2022-12-19T02:39:18.965Z,-3.90
2022-12-19T02:41:52.290Z,-3.90
2022-12-19T02:44:24.438Z,-3.90
2022-12-19T02:46:56.554Z,-3.90
2022-12-19T02:49:30.619Z,-3.80
2022-12-19T02:51:59.651Z,-3.90
2022-12-19T02:54:28.131Z,-3.80
2022-12-19T02:57:03.085Z,-3.90
2022-12-19T02:59:47.680Z,-3.80
2022-12-19T03:02:32.555Z,-3.70
2022-12-19T03:05:09.467Z,-3.70
2022-12-19T03:07:43.450Z,-3.70
2022-12-19T03:10:19.831Z,-3.70
2022-12-19T03:12:51.915Z,-3.60
2022-12-19T03:15:22.013Z,-3.50
2022-12-19T03:17:52.254Z,-3.60
2022-12-19T03:20:26.423Z,-3.50
2022-12-19T03:22:54.909Z,-3.60
2022-12-19T03:25:24.285Z,-3.60
2022-12-19T03:27:54.248Z,-3.50
2022-12-19T03:30:23.230Z,-3.50
2022-12-19T03:32:54.092Z,-3.40
2022-12-19T03:35:26.038Z,-3.40
2022-12-19T03:37:58.516Z,-3.30
2022-12-19T03:40:29.307Z,-3.30
2022-12-19T03:43:11.605Z,-3.30
2022-12-19T03:45:56.848Z,-3.20
2022-12-19T03:48:32.125Z,-3.10
2022-12-19T03:51:10.225Z,-3.10
2022-12-19T03:53:49.220Z,-3.10
2022-12-19T03:56:27.072Z,-3.10
2022-12-19T03:59:03.556Z,-3.00
2022-12-19T04:01:35.488Z,-3.00
2022-12-19T04:04:08.190Z,-3.00
2022-12-19T04:06:37.747Z,-3.00
2022-12-19T04:09:06.475Z,-3.00
2022-12-19T04:11:40.902Z,-2.90
2022-12-19T04:14:14.924Z,-2.90
2022-12-19T04:16:49.439Z,-2.90
2022-12-19T04:19:24.952Z,-2.80
2022-12-19T04:21:58.204Z,-2.80
2022-12-19T04:24:31.770Z,-2.80
2022-12-19T04:27:03.012Z,-2.90
2022-12-19T04:29:34.851Z,-2.80
2022-12-19T04:32:04.905Z,-2.80
2022-12-19T04:37:09.802Z,-2.80
2022-12-19T04:39:38.234Z,-2.80
2022-12-19T04:42:06.722Z,-2.80
2022-12-19T04:44:35.140Z,-2.80
2022-12-19T04:47:03.663Z,-2.80
2022-12-19T04:49:32.236Z,-2.80
2022-12-19T04:52:02.136Z,-2.80
2022-12-19T04:54:30.514Z,-2.80
2022-12-19T04:56:58.992Z,-2.70
2022-12-19T04:59:27.513Z,-2.70
2022-12-19T05:01:56.233Z,-2.70
2022-12-19T05:04:25.047Z,-2.70
2022-12-19T05:06:53.570Z,-2.80
2022-12-19T05:09:23.465Z,-2.80
2022-12-19T05:11:53.351Z,-2.70
2022-12-19T05:14:21.767Z,-2.70
2022-12-19T05:16:50.195Z,-2.70
2022-12-19T05:19:18.647Z,-2.70
2022-12-19T05:21:47.074Z,-2.70
2022-12-19T05:24:15.479Z,-2.70
2022-12-19T05:26:45.214Z,-2.70
2022-12-19T05:29:13.383Z,-2.80
2022-12-19T05:31:41.759Z,-2.70
2022-12-19T05:34:10.680Z,-2.70
2022-12-19T05:36:39.039Z,-2.70
2022-12-19T05:39:07.465Z,-2.70
2022-12-19T05:41:35.920Z,-2.70
2022-12-19T05:44:05.849Z,-2.70
2022-12-19T05:46:34.371Z,-2.70
2022-12-19T05:49:02.834Z,-2.70
2022-12-19T05:51:31.496Z,-2.60
2022-12-19T05:54:02.062Z,-2.60
2022-12-19T05:56:30.910Z,-2.60
2022-12-19T05:58:59.319Z,-2.50
2022-12-19T06:01:30.262Z,-2.50
2022-12-19T06:03:58.799Z,-2.60
2022-12-19T06:06:28.933Z,-2.50
2022-12-19T06:08:59.248Z,-2.40
2022-12-19T06:11:28.182Z,-2.40
2022-12-19T06:13:57.097Z,-2.40
2022-12-19T06:16:25.564Z,-2.50
2022-12-19T06:18:55.439Z,-2.40
2022-12-19T06:21:24.681Z,-2.50
2022-12-19T06:23:53.223Z,-2.40
2022-12-19T06:26:23.297Z,-2.40
2022-12-19T06:28:53.905Z,-2.30
2022-12-19T06:31:23.731Z,-2.30
2022-12-19T06:33:53.454Z,-2.20
2022-12-19T06:36:25.103Z,-2.10
2022-12-19T06:38:54.619Z,-2.10
2022-12-19T06:41:40.761Z,-2.00
2022-12-19T06:44:12.176Z,-2.00
2022-12-19T06:46:41.438Z,-2.00
2022-12-19T06:49:10.732Z,-2.10
2022-12-19T06:51:41.010Z,-2.10
2022-12-19T06:54:13.536Z,-2.10
2022-12-19T06:56:43.913Z,-2.00
2022-12-19T06:59:14.720Z,-2.00
2022-12-19T07:01:54.866Z,-1.90
2022-12-19T07:04:27.656Z,-1.90
2022-12-19T07:06:58.557Z,-1.90
2022-12-19T07:09:29.029Z,-1.90
2022-12-19T07:11:57.511Z,-1.90
2022-12-19T07:14:25.916Z,-1.90
2022-12-19T07:16:55.495Z,-1.80
2022-12-19T07:19:24.231Z,-1.80
2022-12-19T07:21:52.591Z,-1.80
2022-12-19T07:24:22.873Z,-1.80
2022-12-19T07:26:52.035Z,-1.70
2022-12-19T07:29:20.388Z,-1.70
2022-12-19T07:31:48.871Z,-1.70
2022-12-19T07:34:17.454Z,-1.60
2022-12-19T07:36:46.042Z,-1.60
2022-12-19T07:39:14.450Z,-1.50
2022-12-19T07:41:44.618Z,-1.50
2022-12-19T07:44:15.910Z,-1.50
2022-12-19T07:46:44.704Z,-1.40
2022-12-19T07:49:16.954Z,-1.40
2022-12-19T07:51:48.158Z,-1.40
2022-12-19T07:54:16.564Z,-1.30
2022-12-19T07:56:46.368Z,-1.30
2022-12-19T07:59:14.805Z,-1.30
2022-12-19T08:01:43.235Z,-1.20
2022-12-19T08:04:11.827Z,-1.20
2022-12-19T08:06:41.535Z,-1.20
2022-12-19T08:09:10.373Z,-1.10
2022-12-19T08:11:39.356Z,-1.10
2022-12-19T08:14:09.155Z,-1.10
2022-12-19T08:17:03.230Z,-1.10
2022-12-19T08:19:27.728Z,-1.10
2022-12-19T08:21:56.321Z,-1.20
2022-12-19T08:24:24.740Z,-1.20
2022-12-19T08:26:53.216Z,-1.10
2022-12-19T08:29:23.042Z,-1.10
2022-12-19T08:31:51.477Z,-1.00
2022-12-19T08:34:19.890Z,-1.00
2022-12-19T08:36:48.368Z,-1.00
2022-12-19T08:39:16.892Z,-1.00
2022-12-19T08:41:45.360Z,-0.90
2022-12-19T08:44:13.806Z,-0.90
2022-12-19T08:46:49.444Z,-0.90
2022-12-19T08:49:18.747Z,-0.90
2022-12-19T08:51:47.482Z,-0.80
2022-12-19T08:54:15.904Z,-0.80
2022-12-19T08:56:46.767Z,-0.70
2022-12-19T08:59:22.779Z,-0.70
2022-12-19T09:02:02.353Z,-0.60
2022-12-19T09:05:58.290Z,-0.60
2022-12-19T09:07:20.165Z,-0.60
2022-12-19T09:09:48.616Z,-0.60
2022-12-19T09:12:17.550Z,-0.50
2022-12-19T09:14:46.167Z,-0.40
2022-12-19T09:17:16.104Z,-0.40
2022-12-19T09:19:47.696Z,-0.30
2022-12-19T09:22:17.427Z,-0.20
2022-12-19T09:24:46.499Z,0.00
2022-12-19T09:27:18.502Z,0.00
2022-12-19T09:29:46.930Z,0.30
2022-12-19T09:32:16.698Z,0.30
2022-12-19T09:34:45.135Z,0.30
2022-12-19T09:37:16.054Z,0.30
2022-12-19T09:39:47.108Z,0.30
2022-12-19T09:42:24.904Z,0.30
2022-12-19T09:45:19.511Z,0.40
2022-12-19T09:48:03.614Z,0.50
2022-12-19T09:50:43.800Z,0.30
2022-12-19T09:53:21.014Z,0.50
2022-12-19T09:55:50.685Z,0.50
2022-12-19T09:58:24.097Z,0.40
2022-12-19T10:00:59.694Z,0.60
2022-12-19T10:03:40.189Z,0.50
2022-12-19T10:07:07.809Z,0.40
2022-12-19T10:10:01.929Z,0.60
2022-12-19T10:12:44.783Z,0.70
2022-12-19T10:15:05.167Z,0.60
2022-12-19T10:17:51.857Z,0.60
2022-12-19T10:20:29.313Z,0.60
2022-12-19T10:23:14.806Z,0.60
2022-12-19T10:25:52.652Z,0.60
2022-12-19T10:28:42.169Z,0.60
2022-12-19T10:31:22.004Z,0.60
2022-12-19T10:33:57.496Z,0.60
2022-12-19T10:36:55.924Z,0.60
2022-12-19T10:39:25.580Z,0.60
2022-12-19T10:41:57.938Z,0.80
2022-12-19T10:44:29.379Z,0.90
2022-12-19T10:46:57.929Z,1.00
2022-12-19T10:49:28.012Z,1.00
2022-12-19T10:52:03.348Z,1.10
2022-12-19T10:54:42.925Z,1.20
2022-12-19T10:57:25.326Z,1.30
2022-12-19T10:59:58.754Z,1.20
2022-12-19T11:02:45.957Z,1.30
2022-12-19T11:05:29.523Z,1.20
2022-12-19T11:08:04.887Z,1.00
2022-12-19T11:13:30.106Z,1.10
2022-12-19T11:18:23.784Z,0.90
2022-12-19T11:19:32.549Z,0.70
2022-12-19T11:29:41.547Z,0.80
2022-12-19T11:30:41.737Z,0.90
2022-12-19T11:30:42.987Z,1.10
2022-12-19T11:30:46.941Z,1.20
2022-12-19T11:34:07.486Z,1.10
2022-12-19T11:36:42.299Z,0.90
2022-12-19T11:39:18.923Z,0.90
2022-12-19T11:41:56.938Z,0.90
2022-12-19T11:44:31.438Z,1.00
2022-12-19T11:47:12.846Z,1.10
2022-12-19T11:49:46.885Z,1.20
2022-12-19T11:53:02.497Z,1.30
2022-12-19T11:55:20.023Z,1.20
2022-12-19T11:57:50.099Z,1.20
2022-12-19T12:00:21.746Z,1.30
2022-12-19T12:03:23.121Z,1.00
2022-12-19T12:05:55.482Z,0.80
2022-12-19T12:10:12.837Z,0.70
2022-12-19T12:16:53.481Z,0.60
2022-12-19T12:25:39.402Z,0.60
2022-12-19T12:30:36.321Z,0.50
2022-12-19T12:31:22.910Z,0.70
2022-12-19T12:31:23.723Z,0.50
2022-12-19T12:32:03.521Z,0.70
2022-12-19T12:32:05.583Z,0.60
2022-12-19T12:35:33.213Z,0.60
2022-12-19T12:38:52.591Z,0.60
2022-12-19T12:41:48.005Z,0.50
2022-12-19T12:44:32.489Z,0.60
2022-12-19T12:47:06.604Z,0.60
2022-12-19T12:49:43.131Z,0.60
2022-12-19T12:52:17.800Z,0.60
2022-12-19T12:54:49.664Z,0.60
2022-12-19T12:57:36.403Z,0.60
2022-12-19T13:00:26.762Z,0.60
2022-12-19T13:02:59.176Z,0.70
2022-12-19T13:05:41.771Z,0.80
2022-12-19T13:08:28.662Z,0.80
2022-12-19T13:10:59.604Z,0.80
2022-12-19T13:13:49.632Z,0.80
2022-12-19T13:16:51.354Z,0.90
2022-12-19T13:19:27.974Z,0.80
2022-12-19T13:22:44.994Z,0.80
2022-12-19T13:25:52.453Z,0.80
2022-12-19T13:28:42.217Z,0.90
2022-12-19T13:31:21.414Z,0.80
2022-12-19T13:34:17.210Z,0.80
2022-12-19T13:39:54.619Z,0.80
2022-12-19T13:40:01.458Z,0.80
2022-12-19T13:42:59.463Z,0.70
2022-12-19T13:45:42.674Z,0.80
2022-12-19T13:48:18.955Z,0.80
2022-12-19T13:50:49.743Z,0.80
2022-12-19T13:53:19.518Z,0.80
2022-12-19T13:55:47.846Z,0.70
2022-12-19T13:58:29.482Z,0.80
2022-12-19T14:01:02.526Z,0.80
2022-12-19T14:03:38.325Z,0.70
2022-12-19T14:06:16.637Z,0.80
2022-12-19T14:09:37.397Z,0.80
2022-12-19T14:12:26.958Z,0.80
2022-12-19T14:15:12.441Z,0.90
2022-12-19T14:17:38.437Z,0.90
2022-12-19T14:21:10.650Z,0.80
2022-12-19T14:23:08.298Z,0.90
2022-12-19T14:28:21.002Z,0.80
2022-12-19T14:28:39.349Z,0.80
2022-12-19T14:31:14.668Z,0.80
2022-12-19T14:34:04.729Z,0.70
2022-12-19T14:36:37.637Z,0.80
2022-12-19T14:39:23.551Z,0.80
2022-12-19T14:42:19.967Z,0.80
2022-12-19T14:52:34.981Z,0.60
2022-12-19T14:54:07.203Z,0.70
2022-12-19T14:54:40.196Z,0.70
2022-12-19T14:57:29.165Z,0.70
2022-12-19T15:01:08.400Z,0.70
2022-12-19T15:03:24.273Z,0.70
2022-12-19T15:06:03.584Z,0.60
2022-12-19T15:10:08.974Z,0.60
2022-12-19T15:14:47.042Z,0.60
2022-12-19T15:15:11.358Z,0.60
2022-12-19T15:17:49.059Z,0.60
2022-12-19T15:20:18.657Z,0.60
2022-12-19T15:22:48.823Z,0.60
2022-12-19T15:25:44.105Z,0.60
2022-12-19T15:28:14.513Z,0.60
2022-12-19T15:30:45.105Z,0.60
2022-12-19T15:33:16.147Z,0.50
2022-12-19T15:35:45.702Z,0.50
2022-12-19T15:38:15.594Z,0.60
2022-12-19T15:40:44.315Z,0.50
2022-12-19T15:43:53.142Z,0.50
2022-12-19T15:46:06.542Z,0.50
2022-12-19T15:48:39.241Z,0.50
2022-12-19T15:51:12.221Z,0.50
2022-12-19T15:53:42.846Z,0.50
2022-12-19T15:56:28.387Z,0.50
2022-12-19T15:58:59.370Z,0.60
2022-12-19T16:01:29.040Z,0.50
2022-12-19T16:03:57.776Z,0.50
2022-12-19T16:06:26.544Z,0.50
2022-12-19T16:08:56.539Z,0.60
2022-12-19T16:11:25.970Z,0.50
2022-12-19T16:13:57.377Z,0.50
2022-12-19T16:16:26.247Z,0.60
2022-12-19T16:18:54.858Z,0.50
2022-12-19T16:21:31.597Z,0.50
2022-12-19T16:24:03.631Z,0.60
2022-12-19T16:26:35.386Z,0.60
2022-12-19T16:29:04.017Z,0.60
2022-12-19T16:31:32.732Z,0.60
2022-12-19T16:34:02.351Z,0.60
2022-12-19T16:36:31.586Z,0.60
2022-12-19T16:39:00.008Z,0.60
2022-12-19T16:41:29.984Z,0.60
2022-12-19T16:43:59.014Z,0.60
2022-12-19T16:46:31.039Z,0.60
2022-12-19T16:48:59.805Z,0.60
2022-12-19T16:51:29.107Z,0.60
2022-12-19T16:54:00.348Z,0.60
2022-12-19T16:56:33.772Z,0.60
2022-12-19T16:59:05.198Z,0.70
2022-12-19T17:01:34.331Z,0.70
2022-12-19T17:04:02.917Z,0.80
2022-12-19T17:06:31.910Z,0.80
2022-12-19T17:09:00.303Z,0.80
2022-12-19T17:11:31.067Z,0.80
2022-12-19T17:14:04.725Z,0.80
2022-12-19T17:16:33.229Z,0.80
2022-12-19T17:19:02.041Z,0.80
2022-12-19T17:21:30.600Z,0.80
2022-12-19T17:23:59.020Z,0.80
2022-12-19T17:26:27.602Z,0.80
2022-12-19T17:28:57.620Z,0.80
2022-12-19T17:31:29.637Z,0.80
2022-12-19T17:33:59.322Z,0.80
2022-12-19T17:36:36.724Z,0.80
2022-12-19T17:39:18.860Z,0.80
2022-12-19T17:41:47.565Z,0.80
2022-12-19T17:44:17.455Z,0.80
2022-12-19T17:46:47.419Z,0.80
2022-12-19T17:49:18.957Z,0.80
2022-12-19T17:51:52.930Z,0.70
2022-12-19T17:54:22.196Z,0.80
2022-12-19T17:56:51.400Z,0.80
2022-12-19T17:59:22.233Z,0.70
2022-12-19T18:01:50.889Z,0.80
2022-12-19T18:04:21.624Z,0.80
2022-12-19T18:06:50.676Z,0.80
2022-12-19T18:09:20.950Z,0.80
2022-12-19T18:11:50.235Z,0.80
2022-12-19T18:14:19.969Z,0.80
2022-12-19T18:16:51.179Z,0.70
2022-12-19T18:19:21.324Z,0.80
2022-12-19T18:21:50.107Z,0.70
2022-12-19T18:24:18.789Z,0.70
2022-12-19T18:26:47.461Z,0.80
2022-12-19T18:29:16.734Z,0.80
2022-12-19T18:31:50.857Z,0.80
2022-12-19T18:34:24.364Z,0.80
2022-12-19T18:36:54.066Z,0.80
2022-12-19T18:39:24.265Z,0.80
2022-12-19T18:41:54.258Z,0.90
2022-12-19T18:44:23.737Z,0.90
2022-12-19T18:46:53.579Z,0.90
2022-12-19T18:49:23.942Z,0.90
2022-12-19T18:51:52.723Z,0.90
2022-12-19T18:54:23.220Z,0.90
2022-12-19T18:56:52.752Z,0.90
2022-12-19T18:59:21.350Z,0.90
2022-12-19T19:01:50.172Z,0.90
2022-12-19T19:04:18.739Z,0.90
2022-12-19T19:06:52.058Z,0.90
2022-12-19T19:09:22.524Z,1.00
2022-12-19T19:11:51.175Z,1.00
2022-12-19T19:14:19.596Z,1.00
2022-12-19T19:16:48.213Z,1.00
2022-12-19T19:19:19.318Z,1.00
2022-12-19T19:21:49.144Z,1.00
2022-12-19T19:24:19.929Z,1.00
2022-12-19T19:26:49.446Z,0.90
2022-12-19T19:29:19.473Z,0.90
2022-12-19T19:31:51.506Z,0.90
2022-12-19T19:34:24.360Z,0.90
2022-12-19T19:36:56.963Z,1.00
2022-12-19T19:39:27.480Z,0.90
2022-12-19T19:41:56.408Z,0.90
2022-12-19T19:44:24.954Z,0.90
2022-12-19T19:46:53.481Z,1.00
2022-12-19T19:49:22.067Z,1.00
2022-12-19T19:51:50.560Z,1.00
2022-12-19T19:54:20.337Z,1.00
2022-12-19T19:56:48.940Z,1.00
2022-12-19T19:59:17.453Z,1.00
2022-12-19T20:01:46.065Z,1.00
2022-12-19T20:04:15.258Z,1.00
2022-12-19T20:06:43.871Z,1.00
2022-12-19T20:09:12.577Z,1.00
2022-12-19T20:11:42.459Z,1.00
2022-12-19T20:14:10.900Z,1.00
2022-12-19T20:16:39.554Z,1.00
2022-12-19T20:19:08.063Z,1.00
2022-12-19T20:21:36.768Z,1.00
2022-12-19T20:24:05.913Z,1.10
2022-12-19T20:26:34.383Z,1.10
2022-12-19T20:29:06.386Z,1.10
2022-12-19T20:31:35.183Z,1.10
2022-12-19T20:34:03.624Z,1.10
2022-12-19T20:36:32.106Z,1.10
2022-12-19T20:39:00.466Z,1.10
2022-12-19T20:41:28.956Z,1.10
2022-12-19T20:43:58.141Z,1.10
2022-12-19T20:46:28.483Z,1.00
2022-12-19T20:48:58.135Z,1.10
2022-12-19T20:51:26.515Z,1.10
2022-12-19T20:53:55.549Z,1.10
2022-12-19T20:56:25.851Z,1.10
2022-12-19T20:58:54.644Z,1.20
2022-12-19T21:01:25.387Z,1.20
2022-12-19T21:03:55.496Z,1.20
2022-12-19T21:06:26.984Z,1.10
2022-12-19T21:08:56.185Z,1.10
2022-12-19T21:11:26.256Z,1.10
2022-12-19T21:13:55.268Z,1.10
2022-12-19T21:16:24.539Z,1.00
2022-12-19T21:18:53.245Z,1.00
2022-12-19T21:21:25.643Z,1.00
2022-12-19T21:23:55.529Z,1.00
2022-12-19T21:26:25.920Z,1.00
2022-12-19T21:28:57.803Z,0.90
2022-12-19T21:31:28.425Z,0.90
2022-12-19T21:33:58.188Z,0.90
2022-12-19T21:36:28.461Z,0.90
2022-12-19T21:38:58.641Z,0.90
2022-12-19T21:41:27.128Z,0.90
2022-12-19T21:43:57.708Z,0.80
2022-12-19T21:46:28.244Z,0.80
2022-12-19T21:48:58.445Z,0.80
2022-12-19T21:51:30.606Z,0.80
2022-12-19T21:54:01.436Z,0.80
2022-12-19T21:56:31.571Z,0.80
2022-12-19T21:59:02.407Z,0.70
2022-12-19T22:01:32.459Z,0.70
2022-12-19T22:04:02.345Z,0.70
2022-12-19T22:06:34.381Z,0.70
2022-12-19T22:09:03.262Z,0.70
2022-12-19T22:11:32.356Z,0.70
2022-12-19T22:14:02.172Z,0.70
2022-12-19T22:16:30.493Z,0.70
2022-12-19T22:18:59.165Z,0.70
2022-12-19T22:21:28.453Z,0.70
2022-12-19T22:23:59.797Z,0.70
2022-12-19T22:26:31.379Z,0.60
2022-12-19T22:29:00.193Z,0.60
2022-12-19T22:31:31.258Z,0.60
2022-12-19T22:34:01.591Z,0.70
2022-12-19T22:36:31.646Z,0.70
2022-12-19T22:39:03.164Z,0.60
2022-12-19T22:41:33.248Z,0.60
2022-12-19T22:44:02.132Z,0.70
2022-12-19T22:46:33.034Z,0.70
2022-12-19T22:49:03.366Z,0.70
2022-12-19T22:51:33.787Z,0.70
2022-12-19T22:54:04.055Z,0.70
2022-12-19T22:56:34.904Z,0.70
2022-12-19T22:59:05.607Z,0.70
2022-12-19T23:01:37.074Z,0.80
2022-12-19T23:04:06.984Z,0.80
2022-12-19T23:06:37.069Z,0.70
2022-12-19T23:09:08.349Z,0.70
2022-12-19T23:11:38.699Z,0.80
2022-12-19T23:14:09.265Z,0.80
2022-12-19T23:16:37.937Z,0.80
2022-12-19T23:19:06.829Z,0.80
2022-12-19T23:21:35.294Z,0.80
2022-12-19T23:24:04.326Z,0.80
2022-12-19T23:26:37.038Z,0.80
2022-12-19T23:29:07.984Z,0.90
2022-12-19T23:31:37.195Z,0.90
2022-12-19T23:34:05.620Z,0.90
2022-12-19T23:39:23.674Z,0.90
2022-12-19T23:41:53.456Z,1.00
2022-12-19T23:44:22.167Z,1.00
2022-12-19T23:46:51.290Z,1.00
2022-12-19T23:49:19.702Z,0.90
2022-12-19T23:51:48.228Z,0.90
2022-12-19T23:54:16.858Z,0.80
2022-12-19T23:56:45.261Z,0.90
2022-12-19T23:59:15.048Z,0.90
